sensor_id;sensor_type;location;lat;lon;timestamp;P1;durP1;ratioP1;P2;durP2;ratioP2
74064;SDS011;62421;51.412;5.432;2022-08-30T00:01:22;15.63;;;5.00;;
74064;SDS011;62421;51.412;5.432;2022-08-30T00:03:50;17.85;;;5.72;;
74064;SDS011;62421;51.412;5.432;2022-08-30T00:06:16;16.33;;;5.10;;
74064;SDS011;62421;51.412;5.432;2022-08-30T00:08:43;17.95;;;5.47;;
74064;SDS011;62421;51.412;5.432;2022-08-30T00:11:11;16.95;;;5.45;;
74064;SDS011;62421;51.412;5.432;2022-08-30T00:13:38;14.07;;;4.80;;
74064;SDS011;62421;51.412;5.432;2022-08-30T00:16:06;12.18;;;4.60;;
74064;SDS011;62421;51.412;5.432;2022-08-30T00:18:32;15.48;;;5.13;;
74064;SDS011;62421;51.412;5.432;2022-08-30T00:20:58;14.68;;;4.90;;
74064;SDS011;62421;51.412;5.432;2022-08-30T00:23:24;14.80;;;4.97;;
74064;SDS011;62421;51.412;5.432;2022-08-30T00:25:50;12.98;;;5.60;;
74064;SDS011;62421;51.412;5.432;2022-08-30T00:28:16;14.50;;;5.40;;
74064;SDS011;62421;51.412;5.432;2022-08-30T00:30:42;12.98;;;5.47;;
74064;SDS011;62421;51.412;5.432;2022-08-30T00:33:08;9.70;;;4.97;;
74064;SDS011;62421;51.412;5.432;2022-08-30T00:35:35;11.93;;;4.47;;
74064;SDS011;62421;51.412;5.432;2022-08-30T00:38:02;16.13;;;5.55;;
74064;SDS011;62421;51.412;5.432;2022-08-30T00:40:28;10.18;;;4.82;;
74064;SDS011;62421;51.412;5.432;2022-08-30T00:42:54;14.18;;;4.93;;
74064;SDS011;62421;51.412;5.432;2022-08-30T00:45:25;9.50;;;4.67;;
74064;SDS011;62421;51.412;5.432;2022-08-30T00:47:53;12.52;;;4.75;;
74064;SDS011;62421;51.412;5.432;2022-08-30T00:50:19;22.33;;;5.70;;
74064;SDS011;62421;51.412;5.432;2022-08-30T00:52:48;12.13;;;5.30;;
74064;SDS011;62421;51.412;5.432;2022-08-30T00:55:17;12.27;;;5.07;;
74064;SDS011;62421;51.412;5.432;2022-08-30T00:57:44;15.68;;;4.78;;
74064;SDS011;62421;51.412;5.432;2022-08-30T01:00:11;10.23;;;4.82;;
74064;SDS011;62421;51.412;5.432;2022-08-30T01:02:38;13.17;;;5.23;;
74064;SDS011;62421;51.412;5.432;2022-08-30T01:05:04;15.07;;;5.63;;
74064;SDS011;62421;51.412;5.432;2022-08-30T01:07:32;14.18;;;5.35;;
74064;SDS011;62421;51.412;5.432;2022-08-30T01:09:58;17.60;;;5.55;;
74064;SDS011;62421;51.412;5.432;2022-08-30T01:12:24;10.88;;;4.75;;
74064;SDS011;62421;51.412;5.432;2022-08-30T01:14:50;10.70;;;4.73;;
74064;SDS011;62421;51.412;5.432;2022-08-30T01:17:15;11.57;;;5.27;;
74064;SDS011;62421;51.412;5.432;2022-08-30T01:19:55;13.88;;;5.75;;
74064;SDS011;62421;51.412;5.432;2022-08-30T01:22:27;12.45;;;4.68;;
74064;SDS011;62421;51.412;5.432;2022-08-30T01:24:58;15.85;;;5.45;;
74064;SDS011;62421;51.412;5.432;2022-08-30T01:27:25;12.80;;;5.27;;
74064;SDS011;62421;51.412;5.432;2022-08-30T01:29:52;11.45;;;4.80;;
74064;SDS011;62421;51.412;5.432;2022-08-30T01:32:20;13.52;;;5.25;;
74064;SDS011;62421;51.412;5.432;2022-08-30T01:34:48;9.10;;;4.80;;
74064;SDS011;62421;51.412;5.432;2022-08-30T01:37:47;10.82;;;4.57;;
74064;SDS011;62421;51.412;5.432;2022-08-30T01:40:07;11.00;;;5.00;;
74064;SDS011;62421;51.412;5.432;2022-08-30T01:42:33;10.07;;;5.50;;
74064;SDS011;62421;51.412;5.432;2022-08-30T01:44:59;11.98;;;5.47;;
74064;SDS011;62421;51.412;5.432;2022-08-30T01:47:24;14.63;;;5.37;;
74064;SDS011;62421;51.412;5.432;2022-08-30T01:49:49;13.43;;;5.13;;
74064;SDS011;62421;51.412;5.432;2022-08-30T01:52:15;11.57;;;4.70;;
74064;SDS011;62421;51.412;5.432;2022-08-30T01:54:44;11.13;;;5.53;;
74064;SDS011;62421;51.412;5.432;2022-08-30T01:57:13;17.63;;;5.35;;
74064;SDS011;62421;51.412;5.432;2022-08-30T01:59:41;13.45;;;5.63;;
74064;SDS011;62421;51.412;5.432;2022-08-30T02:02:11;13.93;;;4.95;;
74064;SDS011;62421;51.412;5.432;2022-08-30T02:04:42;16.63;;;6.07;;
74064;SDS011;62421;51.412;5.432;2022-08-30T02:07:07;13.23;;;5.97;;
74064;SDS011;62421;51.412;5.432;2022-08-30T02:09:33;11.87;;;5.80;;
74064;SDS011;62421;51.412;5.432;2022-08-30T02:11:58;21.08;;;5.80;;
74064;SDS011;62421;51.412;5.432;2022-08-30T02:14:25;18.53;;;6.03;;
74064;SDS011;62421;51.412;5.432;2022-08-30T02:16:50;12.13;;;5.13;;
74064;SDS011;62421;51.412;5.432;2022-08-30T02:19:15;11.50;;;5.63;;
74064;SDS011;62421;51.412;5.432;2022-08-30T02:21:42;14.93;;;5.93;;
74064;SDS011;62421;51.412;5.432;2022-08-30T02:24:07;10.87;;;4.87;;
74064;SDS011;62421;51.412;5.432;2022-08-30T02:26:32;12.47;;;5.10;;
74064;SDS011;62421;51.412;5.432;2022-08-30T02:29:00;14.32;;;5.43;;
74064;SDS011;62421;51.412;5.432;2022-08-30T02:31:25;11.23;;;5.40;;
74064;SDS011;62421;51.412;5.432;2022-08-30T02:33:51;11.57;;;5.63;;
74064;SDS011;62421;51.412;5.432;2022-08-30T02:36:17;10.57;;;5.85;;
74064;SDS011;62421;51.412;5.432;2022-08-30T02:38:44;11.68;;;5.93;;
74064;SDS011;62421;51.412;5.432;2022-08-30T02:41:10;14.70;;;6.10;;
74064;SDS011;62421;51.412;5.432;2022-08-30T02:43:35;14.77;;;6.03;;
74064;SDS011;62421;51.412;5.432;2022-08-30T02:46:01;11.93;;;6.00;;
74064;SDS011;62421;51.412;5.432;2022-08-30T02:48:26;10.65;;;5.57;;
74064;SDS011;62421;51.412;5.432;2022-08-30T02:50:51;11.03;;;5.33;;
74064;SDS011;62421;51.412;5.432;2022-08-30T02:53:17;15.13;;;6.07;;
74064;SDS011;62421;51.412;5.432;2022-08-30T02:55:44;15.20;;;6.60;;
74064;SDS011;62421;51.412;5.432;2022-08-30T02:58:10;14.23;;;6.03;;
74064;SDS011;62421;51.412;5.432;2022-08-30T03:00:36;12.30;;;5.97;;
74064;SDS011;62421;51.412;5.432;2022-08-30T03:03:02;16.00;;;6.80;;
74064;SDS011;62421;51.412;5.432;2022-08-30T03:05:29;12.60;;;6.50;;
74064;SDS011;62421;51.412;5.432;2022-08-30T03:07:55;14.25;;;6.00;;
74064;SDS011;62421;51.412;5.432;2022-08-30T03:10:21;14.27;;;6.20;;
74064;SDS011;62421;51.412;5.432;2022-08-30T03:12:46;11.25;;;6.72;;
74064;SDS011;62421;51.412;5.432;2022-08-30T03:15:12;11.10;;;6.70;;
74064;SDS011;62421;51.412;5.432;2022-08-30T03:17:39;13.23;;;6.80;;
74064;SDS011;62421;51.412;5.432;2022-08-30T03:20:04;9.68;;;6.30;;
74064;SDS011;62421;51.412;5.432;2022-08-30T03:22:31;12.30;;;6.70;;
74064;SDS011;62421;51.412;5.432;2022-08-30T03:24:56;15.18;;;6.90;;
74064;SDS011;62421;51.412;5.432;2022-08-30T03:27:23;13.80;;;6.82;;
74064;SDS011;62421;51.412;5.432;2022-08-30T03:29:49;13.30;;;7.03;;
74064;SDS011;62421;51.412;5.432;2022-08-30T03:32:15;12.23;;;7.03;;
74064;SDS011;62421;51.412;5.432;2022-08-30T03:34:40;14.20;;;7.07;;
74064;SDS011;62421;51.412;5.432;2022-08-30T03:37:05;11.82;;;6.47;;
74064;SDS011;62421;51.412;5.432;2022-08-30T03:39:31;12.77;;;6.80;;
74064;SDS011;62421;51.412;5.432;2022-08-30T03:41:56;15.27;;;7.27;;
74064;SDS011;62421;51.412;5.432;2022-08-30T03:44:22;16.93;;;6.50;;
74064;SDS011;62421;51.412;5.432;2022-08-30T03:46:47;13.73;;;6.53;;
74064;SDS011;62421;51.412;5.432;2022-08-30T03:49:13;13.10;;;7.10;;
74064;SDS011;62421;51.412;5.432;2022-08-30T03:51:39;14.18;;;7.88;;
74064;SDS011;62421;51.412;5.432;2022-08-30T03:54:04;13.07;;;7.45;;
74064;SDS011;62421;51.412;5.432;2022-08-30T03:56:29;11.43;;;7.13;;
74064;SDS011;62421;51.412;5.432;2022-08-30T03:58:55;13.37;;;7.33;;
74064;SDS011;62421;51.412;5.432;2022-08-30T04:01:20;11.93;;;6.90;;
74064;SDS011;62421;51.412;5.432;2022-08-30T04:03:45;16.70;;;7.40;;
74064;SDS011;62421;51.412;5.432;2022-08-30T04:06:11;14.50;;;7.73;;
74064;SDS011;62421;51.412;5.432;2022-08-30T04:08:36;12.80;;;7.43;;
74064;SDS011;62421;51.412;5.432;2022-08-30T04:11:03;13.80;;;7.60;;
74064;SDS011;62421;51.412;5.432;2022-08-30T04:13:28;10.98;;;7.65;;
74064;SDS011;62421;51.412;5.432;2022-08-30T04:15:54;15.57;;;8.27;;
74064;SDS011;62421;51.412;5.432;2022-08-30T04:18:19;13.60;;;7.63;;
74064;SDS011;62421;51.412;5.432;2022-08-30T04:20:45;13.25;;;7.78;;
74064;SDS011;62421;51.412;5.432;2022-08-30T04:23:11;13.73;;;7.50;;
74064;SDS011;62421;51.412;5.432;2022-08-30T04:25:37;13.27;;;8.50;;
74064;SDS011;62421;51.412;5.432;2022-08-30T04:28:04;16.65;;;7.68;;
74064;SDS011;62421;51.412;5.432;2022-08-30T04:30:30;11.65;;;7.18;;
74064;SDS011;62421;51.412;5.432;2022-08-30T04:32:56;12.83;;;7.97;;
74064;SDS011;62421;51.412;5.432;2022-08-30T04:35:22;17.98;;;7.95;;
74064;SDS011;62421;51.412;5.432;2022-08-30T04:37:48;12.55;;;8.00;;
74064;SDS011;62421;51.412;5.432;2022-08-30T04:40:13;16.20;;;8.45;;
74064;SDS011;62421;51.412;5.432;2022-08-30T04:42:39;18.85;;;8.05;;
74064;SDS011;62421;51.412;5.432;2022-08-30T04:45:09;13.17;;;7.30;;
74064;SDS011;62421;51.412;5.432;2022-08-30T04:47:37;15.25;;;8.25;;
74064;SDS011;62421;51.412;5.432;2022-08-30T04:50:03;18.65;;;8.77;;
74064;SDS011;62421;51.412;5.432;2022-08-30T04:52:30;17.35;;;8.30;;
74064;SDS011;62421;51.412;5.432;2022-08-30T04:54:56;14.17;;;8.33;;
74064;SDS011;62421;51.412;5.432;2022-08-30T04:57:23;12.40;;;8.50;;
74064;SDS011;62421;51.412;5.432;2022-08-30T04:59:49;16.05;;;8.50;;
74064;SDS011;62421;51.412;5.432;2022-08-30T05:02:15;13.63;;;8.10;;
74064;SDS011;62421;51.412;5.432;2022-08-30T05:04:41;13.70;;;8.60;;
74064;SDS011;62421;51.412;5.432;2022-08-30T05:07:26;13.55;;;9.05;;
74064;SDS011;62421;51.412;5.432;2022-08-30T05:09:52;11.23;;;7.93;;
74064;SDS011;62421;51.412;5.432;2022-08-30T05:12:17;13.73;;;8.43;;
74064;SDS011;62421;51.412;5.432;2022-08-30T05:14:42;13.27;;;8.90;;
74064;SDS011;62421;51.412;5.432;2022-08-30T05:17:08;15.93;;;9.83;;
74064;SDS011;62421;51.412;5.432;2022-08-30T05:19:33;15.00;;;8.23;;
74064;SDS011;62421;51.412;5.432;2022-08-30T05:21:59;13.20;;;8.90;;
74064;SDS011;62421;51.412;5.432;2022-08-30T05:24:24;15.77;;;9.30;;
74064;SDS011;62421;51.412;5.432;2022-08-30T05:26:50;16.43;;;9.73;;
74064;SDS011;62421;51.412;5.432;2022-08-30T05:29:15;18.93;;;9.43;;
74064;SDS011;62421;51.412;5.432;2022-08-30T05:31:42;12.73;;;8.43;;
74064;SDS011;62421;51.412;5.432;2022-08-30T05:34:08;14.52;;;9.10;;
74064;SDS011;62421;51.412;5.432;2022-08-30T05:36:35;14.82;;;9.95;;
74064;SDS011;62421;51.412;5.432;2022-08-30T05:39:04;15.32;;;9.60;;
74064;SDS011;62421;51.412;5.432;2022-08-30T05:41:33;15.95;;;9.13;;
74064;SDS011;62421;51.412;5.432;2022-08-30T05:43:59;14.67;;;9.40;;
74064;SDS011;62421;51.412;5.432;2022-08-30T05:46:26;17.67;;;10.30;;
74064;SDS011;62421;51.412;5.432;2022-08-30T05:48:56;16.02;;;10.35;;
74064;SDS011;62421;51.412;5.432;2022-08-30T05:51:23;14.13;;;10.27;;
74064;SDS011;62421;51.412;5.432;2022-08-30T05:53:53;15.25;;;10.00;;
74064;SDS011;62421;51.412;5.432;2022-08-30T05:56:23;16.30;;;10.43;;
74064;SDS011;62421;51.412;5.432;2022-08-30T05:58:55;18.38;;;9.85;;
74064;SDS011;62421;51.412;5.432;2022-08-30T06:01:27;15.30;;;10.73;;
74064;SDS011;62421;51.412;5.432;2022-08-30T06:03:56;17.77;;;11.63;;
74064;SDS011;62421;51.412;5.432;2022-08-30T06:06:24;18.25;;;9.82;;
74064;SDS011;62421;51.412;5.432;2022-08-30T06:08:50;16.17;;;11.57;;
74064;SDS011;62421;51.412;5.432;2022-08-30T06:11:16;16.77;;;10.63;;
74064;SDS011;62421;51.412;5.432;2022-08-30T06:13:44;18.30;;;10.98;;
74064;SDS011;62421;51.412;5.432;2022-08-30T06:16:10;18.00;;;11.07;;
74064;SDS011;62421;51.412;5.432;2022-08-30T06:18:36;14.40;;;11.00;;
74064;SDS011;62421;51.412;5.432;2022-08-30T06:21:02;16.07;;;10.50;;
74064;SDS011;62421;51.412;5.432;2022-08-30T06:23:27;24.70;;;10.95;;
74064;SDS011;62421;51.412;5.432;2022-08-30T06:25:53;19.33;;;11.70;;
74064;SDS011;62421;51.412;5.432;2022-08-30T06:28:19;15.98;;;10.95;;
74064;SDS011;62421;51.412;5.432;2022-08-30T06:30:44;14.57;;;10.07;;
74064;SDS011;62421;51.412;5.432;2022-08-30T06:33:10;21.13;;;11.07;;
74064;SDS011;62421;51.412;5.432;2022-08-30T06:35:35;14.70;;;9.80;;
74064;SDS011;62421;51.412;5.432;2022-08-30T06:38:01;18.10;;;10.90;;
74064;SDS011;62421;51.412;5.432;2022-08-30T06:40:27;19.67;;;11.35;;
74064;SDS011;62421;51.412;5.432;2022-08-30T06:42:52;19.20;;;10.40;;
74064;SDS011;62421;51.412;5.432;2022-08-30T06:45:18;15.18;;;10.55;;
74064;SDS011;62421;51.412;5.432;2022-08-30T06:47:45;15.80;;;11.02;;
74064;SDS011;62421;51.412;5.432;2022-08-30T06:50:12;14.53;;;10.80;;
74064;SDS011;62421;51.412;5.432;2022-08-30T06:52:39;19.73;;;11.13;;
74064;SDS011;62421;51.412;5.432;2022-08-30T06:55:06;15.65;;;10.93;;
74064;SDS011;62421;51.412;5.432;2022-08-30T06:57:32;17.65;;;11.07;;
74064;SDS011;62421;51.412;5.432;2022-08-30T06:59:58;17.73;;;11.30;;
74064;SDS011;62421;51.412;5.432;2022-08-30T07:02:23;19.77;;;12.37;;
74064;SDS011;62421;51.412;5.432;2022-08-30T07:04:50;19.33;;;11.35;;
74064;SDS011;62421;51.412;5.432;2022-08-30T07:07:15;18.43;;;11.53;;
74064;SDS011;62421;51.412;5.432;2022-08-30T07:09:41;17.13;;;11.60;;
74064;SDS011;62421;51.412;5.432;2022-08-30T07:12:09;17.20;;;11.35;;
74064;SDS011;62421;51.412;5.432;2022-08-30T07:14:35;16.90;;;10.60;;
74064;SDS011;62421;51.412;5.432;2022-08-30T07:17:00;15.95;;;10.98;;
74064;SDS011;62421;51.412;5.432;2022-08-30T07:19:26;15.63;;;10.53;;
74064;SDS011;62421;51.412;5.432;2022-08-30T07:21:51;15.30;;;11.20;;
74064;SDS011;62421;51.412;5.432;2022-08-30T07:24:17;16.03;;;10.27;;
74064;SDS011;62421;51.412;5.432;2022-08-30T07:26:46;15.43;;;10.55;;
74064;SDS011;62421;51.412;5.432;2022-08-30T07:29:13;17.48;;;10.77;;
74064;SDS011;62421;51.412;5.432;2022-08-30T07:31:40;17.57;;;10.00;;
74064;SDS011;62421;51.412;5.432;2022-08-30T07:34:06;20.92;;;10.52;;
74064;SDS011;62421;51.412;5.432;2022-08-30T07:36:32;19.97;;;10.87;;
74064;SDS011;62421;51.412;5.432;2022-08-30T07:38:58;21.92;;;10.60;;
74064;SDS011;62421;51.412;5.432;2022-08-30T07:41:28;19.05;;;10.23;;
74064;SDS011;62421;51.412;5.432;2022-08-30T07:43:56;16.02;;;9.50;;
74064;SDS011;62421;51.412;5.432;2022-08-30T07:46:22;17.20;;;9.23;;
74064;SDS011;62421;51.412;5.432;2022-08-30T07:48:48;13.27;;;9.38;;
74064;SDS011;62421;51.412;5.432;2022-08-30T07:51:15;15.83;;;9.83;;
74064;SDS011;62421;51.412;5.432;2022-08-30T07:53:43;12.98;;;8.82;;
74064;SDS011;62421;51.412;5.432;2022-08-30T07:56:08;18.30;;;9.47;;
74064;SDS011;62421;51.412;5.432;2022-08-30T07:58:34;12.80;;;8.35;;
74064;SDS011;62421;51.412;5.432;2022-08-30T08:01:01;15.70;;;9.70;;
74064;SDS011;62421;51.412;5.432;2022-08-30T08:03:29;13.95;;;8.07;;
74064;SDS011;62421;51.412;5.432;2022-08-30T08:05:54;15.68;;;8.23;;
74064;SDS011;62421;51.412;5.432;2022-08-30T08:08:20;16.33;;;8.67;;
74064;SDS011;62421;51.412;5.432;2022-08-30T08:10:46;12.60;;;7.65;;
74064;SDS011;62421;51.412;5.432;2022-08-30T08:13:11;11.60;;;8.23;;
74064;SDS011;62421;51.412;5.432;2022-08-30T08:15:36;13.53;;;8.03;;
74064;SDS011;62421;51.412;5.432;2022-08-30T08:18:02;11.57;;;7.60;;
74064;SDS011;62421;51.412;5.432;2022-08-30T08:20:28;12.38;;;7.70;;
74064;SDS011;62421;51.412;5.432;2022-08-30T08:22:53;16.23;;;7.87;;
74064;SDS011;62421;51.412;5.432;2022-08-30T08:25:19;13.60;;;7.43;;
74064;SDS011;62421;51.412;5.432;2022-08-30T08:27:47;15.07;;;6.45;;
74064;SDS011;62421;51.412;5.432;2022-08-30T08:30:15;13.13;;;6.90;;
74064;SDS011;62421;51.412;5.432;2022-08-30T08:32:44;12.77;;;7.00;;
74064;SDS011;62421;51.412;5.432;2022-08-30T08:35:10;12.60;;;6.95;;
74064;SDS011;62421;51.412;5.432;2022-08-30T08:37:37;12.57;;;6.77;;
74064;SDS011;62421;51.412;5.432;2022-08-30T08:40:03;12.55;;;6.63;;
74064;SDS011;62421;51.412;5.432;2022-08-30T08:42:47;14.40;;;7.10;;
74064;SDS011;62421;51.412;5.432;2022-08-30T08:48:07;11.80;;;6.53;;
74064;SDS011;62421;51.412;5.432;2022-08-30T08:50:36;11.50;;;6.83;;
74064;SDS011;62421;51.412;5.432;2022-08-30T08:55:57;10.27;;;6.40;;
74064;SDS011;62421;51.412;5.432;2022-08-30T08:58:23;15.60;;;7.28;;
74064;SDS011;62421;51.412;5.432;2022-08-30T09:00:52;10.07;;;6.20;;
74064;SDS011;62421;51.412;5.432;2022-08-30T09:03:19;12.77;;;6.83;;
74064;SDS011;62421;51.412;5.432;2022-08-30T09:05:46;13.93;;;6.70;;
74064;SDS011;62421;51.412;5.432;2022-08-30T09:08:13;11.13;;;6.05;;
74064;SDS011;62421;51.412;5.432;2022-08-30T09:10:43;13.80;;;6.53;;
74064;SDS011;62421;51.412;5.432;2022-08-30T09:13:20;13.68;;;6.15;;
74064;SDS011;62421;51.412;5.432;2022-08-30T09:15:48;9.57;;;5.87;;
74064;SDS011;62421;51.412;5.432;2022-08-30T09:18:14;13.95;;;5.95;;
74064;SDS011;62421;51.412;5.432;2022-08-30T09:20:41;10.43;;;5.53;;
74064;SDS011;62421;51.412;5.432;2022-08-30T09:28:26;10.40;;;5.40;;
74064;SDS011;62421;51.412;5.432;2022-08-30T09:33:23;10.10;;;5.17;;
74064;SDS011;62421;51.412;5.432;2022-08-30T09:35:49;8.85;;;4.82;;
74064;SDS011;62421;51.412;5.432;2022-08-30T09:40:55;12.20;;;4.75;;
74064;SDS011;62421;51.412;5.432;2022-08-30T09:43:26;11.95;;;5.63;;
74064;SDS011;62421;51.412;5.432;2022-08-30T09:48:42;11.45;;;5.10;;
74064;SDS011;62421;51.412;5.432;2022-08-30T09:53:39;6.97;;;3.58;;
74064;SDS011;62421;51.412;5.432;2022-08-30T09:56:15;12.45;;;3.60;;
74064;SDS011;62421;51.412;5.432;2022-08-30T09:58:54;13.15;;;3.58;;
74064;SDS011;62421;51.412;5.432;2022-08-30T10:01:48;9.90;;;3.80;;
74064;SDS011;62421;51.412;5.432;2022-08-30T10:04:23;7.63;;;3.83;;
74064;SDS011;62421;51.412;5.432;2022-08-30T10:07:05;12.43;;;3.70;;
74064;SDS011;62421;51.412;5.432;2022-08-30T10:09:47;8.73;;;3.03;;
74064;SDS011;62421;51.412;5.432;2022-08-30T10:15:02;9.23;;;3.00;;
74064;SDS011;62421;51.412;5.432;2022-08-30T10:20:18;8.83;;;3.27;;
74064;SDS011;62421;51.412;5.432;2022-08-30T10:22:55;8.75;;;2.97;;
74064;SDS011;62421;51.412;5.432;2022-08-30T10:25:29;6.47;;;3.05;;
74064;SDS011;62421;51.412;5.432;2022-08-30T10:28:10;7.43;;;2.83;;
74064;SDS011;62421;51.412;5.432;2022-08-30T10:30:42;11.80;;;3.13;;
74064;SDS011;62421;51.412;5.432;2022-08-30T10:36:00;6.80;;;3.05;;
74064;SDS011;62421;51.412;5.432;2022-08-30T10:38:31;10.73;;;3.15;;
74064;SDS011;62421;51.412;5.432;2022-08-30T10:43:57;9.85;;;2.58;;
74064;SDS011;62421;51.412;5.432;2022-08-30T10:49:11;8.20;;;2.45;;
74064;SDS011;62421;51.412;5.432;2022-08-30T10:51:43;8.80;;;2.63;;
74064;SDS011;62421;51.412;5.432;2022-08-30T10:54:37;8.23;;;2.63;;
74064;SDS011;62421;51.412;5.432;2022-08-30T10:57:04;5.10;;;2.40;;
74064;SDS011;62421;51.412;5.432;2022-08-30T10:59:30;9.13;;;2.23;;
74064;SDS011;62421;51.412;5.432;2022-08-30T11:02:09;11.88;;;2.30;;
74064;SDS011;62421;51.412;5.432;2022-08-30T11:05:22;7.50;;;2.22;;
74064;SDS011;62421;51.412;5.432;2022-08-30T11:10:45;8.27;;;1.67;;
74064;SDS011;62421;51.412;5.432;2022-08-30T11:13:20;11.02;;;1.63;;
74064;SDS011;62421;51.412;5.432;2022-08-30T11:15:54;13.52;;;2.00;;
74064;SDS011;62421;51.412;5.432;2022-08-30T11:18:26;4.93;;;2.00;;
74064;SDS011;62421;51.412;5.432;2022-08-30T11:20:55;7.68;;;1.90;;
74064;SDS011;62421;51.412;5.432;2022-08-30T11:23:55;6.43;;;2.00;;
74064;SDS011;62421;51.412;5.432;2022-08-30T11:47:49;5.93;;;1.70;;
74064;SDS011;62421;51.412;5.432;2022-08-30T11:50:33;8.70;;;1.80;;
74064;SDS011;62421;51.412;5.432;2022-08-30T11:53:27;6.30;;;1.77;;
74064;SDS011;62421;51.412;5.432;2022-08-30T11:58:48;10.48;;;2.28;;
74064;SDS011;62421;51.412;5.432;2022-08-30T12:01:15;7.22;;;2.08;;
74064;SDS011;62421;51.412;5.432;2022-08-30T12:03:44;13.63;;;1.90;;
74064;SDS011;62421;51.412;5.432;2022-08-30T12:06:42;5.03;;;1.47;;
74064;SDS011;62421;51.412;5.432;2022-08-30T12:09:09;10.70;;;1.60;;
74064;SDS011;62421;51.412;5.432;2022-08-30T12:11:52;6.85;;;2.22;;
74064;SDS011;62421;51.412;5.432;2022-08-30T12:20:10;9.13;;;2.30;;
74064;SDS011;62421;51.412;5.432;2022-08-30T12:22:53;9.45;;;2.17;;
74064;SDS011;62421;51.412;5.432;2022-08-30T12:25:30;11.50;;;1.95;;
74064;SDS011;62421;51.412;5.432;2022-08-30T12:28:07;8.18;;;2.15;;
74064;SDS011;62421;51.412;5.432;2022-08-30T12:30:34;8.15;;;2.17;;
74064;SDS011;62421;51.412;5.432;2022-08-30T12:33:03;7.10;;;2.00;;
74064;SDS011;62421;51.412;5.432;2022-08-30T12:35:29;5.93;;;2.10;;
74064;SDS011;62421;51.412;5.432;2022-08-30T12:38:03;7.30;;;1.50;;
74064;SDS011;62421;51.412;5.432;2022-08-30T12:40:35;11.88;;;1.92;;
74064;SDS011;62421;51.412;5.432;2022-08-30T12:43:03;8.07;;;2.03;;
74064;SDS011;62421;51.412;5.432;2022-08-30T12:45:31;7.72;;;1.80;;
74064;SDS011;62421;51.412;5.432;2022-08-30T12:48:07;9.73;;;1.83;;
74064;SDS011;62421;51.412;5.432;2022-08-30T12:50:36;12.27;;;1.50;;
74064;SDS011;62421;51.412;5.432;2022-08-30T12:53:09;7.40;;;1.58;;
74064;SDS011;62421;51.412;5.432;2022-08-30T12:55:50;8.88;;;1.80;;
74064;SDS011;62421;51.412;5.432;2022-08-30T12:58:32;14.68;;;2.28;;
74064;SDS011;62421;51.412;5.432;2022-08-30T13:04:11;5.30;;;1.77;;
74064;SDS011;62421;51.412;5.432;2022-08-30T13:06:56;9.63;;;1.75;;
74064;SDS011;62421;51.412;5.432;2022-08-30T13:12:01;7.10;;;2.00;;
74064;SDS011;62421;51.412;5.432;2022-08-30T13:21:59;6.00;;;1.77;;
74064;SDS011;62421;51.412;5.432;2022-08-30T13:24:26;9.18;;;2.33;;
74064;SDS011;62421;51.412;5.432;2022-08-30T13:26:53;6.55;;;2.30;;
74064;SDS011;62421;51.412;5.432;2022-08-30T13:29:20;6.45;;;1.88;;
74064;SDS011;62421;51.412;5.432;2022-08-30T13:31:49;7.07;;;1.87;;
74064;SDS011;62421;51.412;5.432;2022-08-30T13:34:14;7.07;;;1.83;;
74064;SDS011;62421;51.412;5.432;2022-08-30T13:36:46;7.30;;;1.87;;
74064;SDS011;62421;51.412;5.432;2022-08-30T13:39:14;9.05;;;1.70;;
74064;SDS011;62421;51.412;5.432;2022-08-30T13:41:40;5.45;;;1.98;;
74064;SDS011;62421;51.412;5.432;2022-08-30T13:44:06;10.50;;;1.92;;
74064;SDS011;62421;51.412;5.432;2022-08-30T13:46:31;7.00;;;1.77;;
74064;SDS011;62421;51.412;5.432;2022-08-30T13:48:58;10.73;;;2.47;;
74064;SDS011;62421;51.412;5.432;2022-08-30T13:51:27;5.13;;;1.85;;
74064;SDS011;62421;51.412;5.432;2022-08-30T13:53:52;10.50;;;1.80;;
74064;SDS011;62421;51.412;5.432;2022-08-30T13:56:17;6.23;;;2.20;;
74064;SDS011;62421;51.412;5.432;2022-08-30T13:58:43;8.75;;;1.85;;
74064;SDS011;62421;51.412;5.432;2022-08-30T14:01:08;7.20;;;1.80;;
74064;SDS011;62421;51.412;5.432;2022-08-30T14:03:34;5.27;;;1.80;;
74064;SDS011;62421;51.412;5.432;2022-08-30T14:05:59;7.33;;;1.90;;
74064;SDS011;62421;51.412;5.432;2022-08-30T14:08:25;5.87;;;2.00;;
74064;SDS011;62421;51.412;5.432;2022-08-30T14:10:53;8.10;;;2.10;;
74064;SDS011;62421;51.412;5.432;2022-08-30T14:13:20;8.57;;;2.38;;
74064;SDS011;62421;51.412;5.432;2022-08-30T14:15:45;8.30;;;2.27;;
74064;SDS011;62421;51.412;5.432;2022-08-30T14:18:12;5.05;;;1.77;;
74064;SDS011;62421;51.412;5.432;2022-08-30T14:20:37;4.90;;;1.40;;
74064;SDS011;62421;51.412;5.432;2022-08-30T14:23:03;4.63;;;1.60;;
74064;SDS011;62421;51.412;5.432;2022-08-30T14:25:28;8.33;;;1.97;;
74064;SDS011;62421;51.412;5.432;2022-08-30T14:27:54;8.73;;;1.70;;
74064;SDS011;62421;51.412;5.432;2022-08-30T14:30:20;12.45;;;2.15;;
74064;SDS011;62421;51.412;5.432;2022-08-30T14:32:48;8.05;;;2.00;;
74064;SDS011;62421;51.412;5.432;2022-08-30T14:35:14;8.37;;;2.10;;
74064;SDS011;62421;51.412;5.432;2022-08-30T14:37:42;3.97;;;1.60;;
74064;SDS011;62421;51.412;5.432;2022-08-30T14:40:08;9.83;;;2.00;;
74064;SDS011;62421;51.412;5.432;2022-08-30T14:42:34;7.72;;;1.90;;
74064;SDS011;62421;51.412;5.432;2022-08-30T14:44:59;8.20;;;2.17;;
74064;SDS011;62421;51.412;5.432;2022-08-30T14:47:24;10.17;;;2.37;;
74064;SDS011;62421;51.412;5.432;2022-08-30T14:49:50;8.30;;;1.70;;
74064;SDS011;62421;51.412;5.432;2022-08-30T14:52:15;5.80;;;1.43;;
74064;SDS011;62421;51.412;5.432;2022-08-30T14:54:40;7.28;;;1.90;;
74064;SDS011;62421;51.412;5.432;2022-08-30T14:57:06;4.17;;;1.50;;
74064;SDS011;62421;51.412;5.432;2022-08-30T14:59:31;11.60;;;1.93;;
74064;SDS011;62421;51.412;5.432;2022-08-30T15:01:57;8.35;;;1.80;;
74064;SDS011;62421;51.412;5.432;2022-08-30T15:04:23;6.47;;;1.83;;
74064;SDS011;62421;51.412;5.432;2022-08-30T15:06:48;8.20;;;1.90;;
74064;SDS011;62421;51.412;5.432;2022-08-30T15:09:15;7.10;;;1.83;;
74064;SDS011;62421;51.412;5.432;2022-08-30T15:11:43;6.33;;;1.30;;
74064;SDS011;62421;51.412;5.432;2022-08-30T15:14:09;16.45;;;2.13;;
74064;SDS011;62421;51.412;5.432;2022-08-30T15:16:35;6.22;;;1.73;;
74064;SDS011;62421;51.412;5.432;2022-08-30T15:19:02;8.82;;;1.95;;
74064;SDS011;62421;51.412;5.432;2022-08-30T15:21:30;5.50;;;1.70;;
74064;SDS011;62421;51.412;5.432;2022-08-30T15:24:01;9.82;;;1.50;;
74064;SDS011;62421;51.412;5.432;2022-08-30T15:26:27;13.52;;;2.13;;
74064;SDS011;62421;51.412;5.432;2022-08-30T15:28:53;10.40;;;1.97;;
74064;SDS011;62421;51.412;5.432;2022-08-30T15:31:19;7.10;;;1.70;;
74064;SDS011;62421;51.412;5.432;2022-08-30T15:33:47;6.00;;;1.77;;
74064;SDS011;62421;51.412;5.432;2022-08-30T15:36:12;7.60;;;1.80;;
74064;SDS011;62421;51.412;5.432;2022-08-30T15:38:37;8.53;;;2.00;;
74064;SDS011;62421;51.412;5.432;2022-08-30T15:41:04;9.53;;;1.90;;
74064;SDS011;62421;51.412;5.432;2022-08-30T15:43:31;6.78;;;1.70;;
74064;SDS011;62421;51.412;5.432;2022-08-30T15:45:56;5.20;;;1.60;;
74064;SDS011;62421;51.412;5.432;2022-08-30T15:48:42;7.40;;;1.77;;
74064;SDS011;62421;51.412;5.432;2022-08-30T15:51:09;7.23;;;1.97;;
74064;SDS011;62421;51.412;5.432;2022-08-30T15:53:34;6.75;;;1.60;;
74064;SDS011;62421;51.412;5.432;2022-08-30T15:56:00;6.83;;;2.00;;
74064;SDS011;62421;51.412;5.432;2022-08-30T15:58:25;6.00;;;1.90;;
74064;SDS011;62421;51.412;5.432;2022-08-30T16:00:51;7.63;;;1.90;;
74064;SDS011;62421;51.412;5.432;2022-08-30T16:03:17;4.73;;;1.80;;